Jasper S — V2CQ4 — position and weather

sailwx.info

Track history (hours):
 
Tides and Currents Weather Stations Pressure Air Temp Water Temp Dewpoint Dewpoint Depression Visibility Wind Speed Wind Dir Waves Ship Positions

Jasper S

Last reported at 2016-Jun-15 11:16 UTC. Time now 2016-Jun-29 03:52 UTC.
Position N 36°43' E 005°11'.
Warning: this ship's position is 13 days out of date.

Length 148 m; draft 9.2 m.

Type: Ship (hazmat cat A). MMSI: 305079000.

Date/timePositionNaut miles runAvg speedWind from/ knotsBaromVisibWave heightAir tempDewpointWater temp
2016-Jun-15 11:16N 36°43' E 005°11'0 0.0
2016-Jun-15 02:16N 36°43' E 005°12'  
2016-Jun-10 21:31N 36°43' E 005°12'1 0.8
2016-Jun-10 20:33N 36°43' E 005°11'1110.0
2016-Jun-10 19:24N 36°54' E 005°06'1416.0
2016-Jun-10 18:32N 37°06' E 004°58'2315.7
2016-Jun-10 17:05N 37°28' E 004°48'4615.1
2016-Jun-10 14:04N 38°10' E 004°26'814.8
2016-Jun-10 13:31N 38°18' E 004°23'1415.1
2016-Jun-10 12:33N 38°31' E 004°16'4715.4
2016-Jun-10 09:30N 39°15' E 003°54'1515.7
2016-Jun-10 08:31N 39°29' E 003°47'1715.7
2016-Jun-10 07:25N 39°45' E 003°38'1415.6
2016-Jun-10 06:32N 39°56' E 003°28'1616.1
2016-Jun-10 05:32N 40°09' E 003°16'1616.1
2016-Jun-10 04:33N 40°22' E 003°03'1615.9
2016-Jun-10 03:33N 40°35' E 002°51'1615.9
2016-Jun-10 02:33N 40°47' E 002°38'1615.7
2016-Jun-10 01:34N 41°01' E 002°27'1615.7
2016-Jun-10 00:33N 41°13' E 002°14'7 3.0
2016-Jun-09 22:18N 41°18' E 002°09'0 0.0
2016-Jun-09 20:33N 41°18' E 002°09'0 0.1
2016-Jun-09 16:33N 41°19' E 002°09'6 5.7
2016-Jun-09 15:33N 41°13' E 002°08'3114.1
2016-Jun-09 13:22N 40°48' E 001°43'1113.7
2016-Jun-09 12:33N 40°39' E 001°35'1413.6
2016-Jun-09 11:33N 40°33' E 001°19'1413.8
2016-Jun-09 10:33N 40°25' E 001°04'1414.3
2016-Jun-09 09:33N 40°15' E 000°51'1514.7
2016-Jun-09 08:33N 40°04' E 000°37'5614.1
2016-Jun-09 04:33N 39°26' W 000°17'2 1.8
2016-Jun-09 03:32N 39°26' W 000°19'0 0.0
2016-Jun-09 02:32N 39°26' W 000°19'0 0.0
2016-Jun-09 01:26N 39°26' W 000°19'0 0.0
2016-Jun-09 00:23N 39°26' W 000°19'0 0.0
2016-Jun-08 23:08N 39°26' W 000°19'0 0.0
2016-Jun-08 22:32N 39°26' W 000°19'0 0.0
2016-Jun-08 21:32N 39°26' W 000°19'0 0.0
2016-Jun-08 20:26N 39°26' W 000°19'0 0.0
2016-Jun-08 19:14N 39°26' W 000°19'0 0.0
2016-Jun-08 18:32N 39°26' W 000°19'0 0.0
2016-Jun-08 17:32N 39°26' W 000°19'0 0.0
2016-Jun-08 16:32N 39°26' W 000°19'0 0.0
2016-Jun-08 15:29N 39°26' W 000°19'0 0.1
2016-Jun-08 14:34N 39°26' W 000°19'5 5.3
2016-Jun-08 13:33N 39°25' W 000°12'1 1.4
2016-Jun-08 12:33N 39°24' W 000°11'55 6.8
2016-Jun-08 04:28N 38°44' E 000°38'1010.8
2016-Jun-08 03:32N 38°37' E 000°47'1111.0
2016-Jun-08 02:33N 38°30' E 000°57'1111.0
2016-Jun-08 01:33N 38°23' E 001°08'1211.1
2016-Jun-08 00:29N 38°14' E 001°18'1011.2
2016-Jun-07 23:33N 38°07' E 001°28'1111.3
2016-Jun-07 22:33N 37°59' E 001°38'1111.1
2016-Jun-07 21:33N 37°51' E 001°48'1111.3
2016-Jun-07 20:33N 37°43' E 001°58'1110.8
2016-Jun-07 19:33N 37°35' E 002°08'1111.0
2016-Jun-07 18:32N 37°27' E 002°18'1111.2
2016-Jun-07 17:33N 37°19' E 002°28'1311.0
2016-Jun-07 16:20N 37°10' E 002°40'911.2
2016-Jun-07 15:34N 37°04' E 002°48'1512.5
2016-Jun-07 14:21N 36°54' E 003°01'8 0.3
2016-Jun-06 14:11N 36°46' E 003°04'  
Track history (hours):
 
Tides and Currents Weather Stations Pressure Air Temp Water Temp Dewpoint Dewpoint Depression Visibility Wind Speed Wind Dir Waves Ship Positions

Jasper S

Last reported at 2016-Jun-15 11:16 UTC. Time now 2016-Jun-29 03:52 UTC.
Position N 36°43' E 005°11'.
Warning: this ship's position is 13 days out of date.

Length 148 m; draft 9.2 m.

Type: Ship (hazmat cat A). MMSI: 305079000.

Date/timePositionNaut miles runAvg speedWind from/ knotsBaromVisibWave heightAir tempDewpointWater temp
2016-Jun-15 11:16N 36°43' E 005°11'0 0.0
2016-Jun-15 02:16N 36°43' E 005°12'  
2016-Jun-10 21:31N 36°43' E 005°12'1 0.8
2016-Jun-10 20:33N 36°43' E 005°11'1110.0
2016-Jun-10 19:24N 36°54' E 005°06'1416.0
2016-Jun-10 18:32N 37°06' E 004°58'2315.7
2016-Jun-10 17:05N 37°28' E 004°48'4615.1
2016-Jun-10 14:04N 38°10' E 004°26'814.8
2016-Jun-10 13:31N 38°18' E 004°23'1415.1
2016-Jun-10 12:33N 38°31' E 004°16'4715.4
2016-Jun-10 09:30N 39°15' E 003°54'1515.7
2016-Jun-10 08:31N 39°29' E 003°47'1715.7
2016-Jun-10 07:25N 39°45' E 003°38'1415.6
2016-Jun-10 06:32N 39°56' E 003°28'1616.1
2016-Jun-10 05:32N 40°09' E 003°16'1616.1
2016-Jun-10 04:33N 40°22' E 003°03'1615.9
2016-Jun-10 03:33N 40°35' E 002°51'1615.9
2016-Jun-10 02:33N 40°47' E 002°38'1615.7
2016-Jun-10 01:34N 41°01' E 002°27'1615.7
2016-Jun-10 00:33N 41°13' E 002°14'7 3.0
2016-Jun-09 22:18N 41°18' E 002°09'0 0.0
2016-Jun-09 20:33N 41°18' E 002°09'0 0.1
2016-Jun-09 16:33N 41°19' E 002°09'6 5.7
2016-Jun-09 15:33N 41°13' E 002°08'3114.1
2016-Jun-09 13:22N 40°48' E 001°43'1113.7
2016-Jun-09 12:33N 40°39' E 001°35'1413.6
2016-Jun-09 11:33N 40°33' E 001°19'1413.8
2016-Jun-09 10:33N 40°25' E 001°04'1414.3
2016-Jun-09 09:33N 40°15' E 000°51'1514.7
2016-Jun-09 08:33N 40°04' E 000°37'5614.1
2016-Jun-09 04:33N 39°26' W 000°17'2 1.8
2016-Jun-09 03:32N 39°26' W 000°19'0 0.0
2016-Jun-09 02:32N 39°26' W 000°19'0 0.0
2016-Jun-09 01:26N 39°26' W 000°19'0 0.0
2016-Jun-09 00:23N 39°26' W 000°19'0 0.0
2016-Jun-08 23:08N 39°26' W 000°19'0 0.0
2016-Jun-08 22:32N 39°26' W 000°19'0 0.0
2016-Jun-08 21:32N 39°26' W 000°19'0 0.0
2016-Jun-08 20:26N 39°26' W 000°19'0 0.0
2016-Jun-08 19:14N 39°26' W 000°19'0 0.0
2016-Jun-08 18:32N 39°26' W 000°19'0 0.0
2016-Jun-08 17:32N 39°26' W 000°19'0 0.0
2016-Jun-08 16:32N 39°26' W 000°19'0 0.0
2016-Jun-08 15:29N 39°26' W 000°19'0 0.1
2016-Jun-08 14:34N 39°26' W 000°19'5 5.3
2016-Jun-08 13:33N 39°25' W 000°12'1 1.4
2016-Jun-08 12:33N 39°24' W 000°11'55 6.8
2016-Jun-08 04:28N 38°44' E 000°38'1010.8
2016-Jun-08 03:32N 38°37' E 000°47'1111.0
2016-Jun-08 02:33N 38°30' E 000°57'1111.0
2016-Jun-08 01:33N 38°23' E 001°08'1211.1
2016-Jun-08 00:29N 38°14' E 001°18'1011.2
2016-Jun-07 23:33N 38°07' E 001°28'1111.3
2016-Jun-07 22:33N 37°59' E 001°38'1111.1
2016-Jun-07 21:33N 37°51' E 001°48'1111.3
2016-Jun-07 20:33N 37°43' E 001°58'1110.8
2016-Jun-07 19:33N 37°35' E 002°08'1111.0
2016-Jun-07 18:32N 37°27' E 002°18'1111.2
2016-Jun-07 17:33N 37°19' E 002°28'1311.0
2016-Jun-07 16:20N 37°10' E 002°40'911.2
2016-Jun-07 15:34N 37°04' E 002°48'1512.5
2016-Jun-07 14:21N 36°54' E 003°01'8 0.3
2016-Jun-06 14:11N 36°46' E 003°04'  

Dump ship's entire track history